This is the latest recevied weather packets stored in our database for station/object KC0RKM-13. If no packets are shown the sender has not sent any weather packets the latest 10 day(s).
| Time | Temp. | Humidity | Pressure | Rain* | Wind** | Luminosity | Snow |
|---|---|---|---|---|---|---|---|
| 1787922604 | 21.11° C | 79% | 1022.2 hPa | 0 mm | - | - | - |
| 1787922004 | 19.44° C | 84% | 1022.2 hPa | 0 mm | - | - | - |
| 1787921404 | 19.44° C | 83% | 1022 hPa | 0 mm | - | - | - |
| 1787920803 | 19.44° C | 83% | 1022.2 hPa | 0 mm | - | - | - |
| 1787920204 | 18.89° C | 85% | 1022.1 hPa | 0 mm | - | - | - |
| 1787919604 | 17.78° C | 90% | 1021.7 hPa | 0 mm | - | - | - |
| 1787919003 | 17.78° C | 90% | 1021 hPa | 0 mm | - | - | - |
| 1787918403 | 17.22° C | 89% | 1021 hPa | 0 mm | - | - | - |
| 1787917803 | 17.22° C | 90% | 1021 hPa | 0 mm | - | - | - |
| 1787917204 | 17.22° C | 90% | 1020.7 hPa | 0 mm | - | - | - |
| 1787916604 | 17.22° C | 91% | 1020.3 hPa | 0 mm | - | - | - |
| 1787916004 | 17.22° C | 91% | 1020.2 hPa | 0 mm | - | - | - |
| 1787915404 | 17.22° C | 90% | 1020.1 hPa | 0 mm | - | - | - |
| 1787914804 | 17.22° C | 91% | 1020.5 hPa | 0 mm | - | - | - |
| 1787914204 | -17.78° C | 100% | 0 hPa | 0 mm | - | - | - |
| 1787913603 | -17.78° C | 100% | 0 hPa | 0 mm | - | - | - |
| 1787913003 | -17.78° C | 100% | 0 hPa | 0 mm | - | - | - |
| 1787912404 | -17.78° C | 100% | 0 hPa | 0 mm | - | - | - |
| 1787911804 | -17.78° C | 100% | 0 hPa | 0 mm | - | - | - |
| 1787911203 | -17.78° C | 100% | 0 hPa | 0 mm | - | - | - |
| 1787910603 | -17.78° C | 100% | 0 hPa | 0 mm | - | - | - |
| 1787910004 | -17.78° C | 100% | 0 hPa | 0 mm | - | - | - |
| 1787909403 | -17.78° C | 100% | 0 hPa | 0 mm | - | - | - |
| 1787908804 | -17.78° C | 100% | 0 hPa | 0 mm | - | - | - |
| 1787908203 | -17.78° C | 100% | 0 hPa | 0 mm | - | - | - |
* Rain latest hour (hover to see other rain measurements)
** Current wind speed in m/s (hover to see current wind gust speed)